createdAt,value
2023-03-13T00:02:14.004Z,28.88
2023-03-13T00:04:42.400Z,35.50
2023-03-13T00:07:11.333Z,33.17
2023-03-13T00:09:39.844Z,29.90
2023-03-13T00:12:08.913Z,34.70
2023-03-13T00:14:37.288Z,34.95
2023-03-13T00:17:05.679Z,34.28
2023-03-13T00:19:35.415Z,29.83
2023-03-13T00:22:03.704Z,30.65
2023-03-13T00:24:32.014Z,33.45
2023-03-13T00:27:03.274Z,32.38
2023-03-13T00:29:31.855Z,29.33
2023-03-13T00:32:00.174Z,22.95
2023-03-13T00:34:28.782Z,29.38
2023-03-13T00:36:58.487Z,26.40
2023-03-13T00:39:26.911Z,23.70
2023-03-13T00:41:55.156Z,21.02
2023-03-13T00:44:23.417Z,23.52
2023-03-13T00:46:51.655Z,23.75
2023-03-13T00:49:19.954Z,27.20
2023-03-13T00:51:48.279Z,26.90
2023-03-13T00:54:18.149Z,25.65
2023-03-13T00:56:46.574Z,20.20
2023-03-13T00:59:15.991Z,20.10
2023-03-13T01:01:44.366Z,26.13
2023-03-13T01:04:13.980Z,30.38
2023-03-13T01:06:43.730Z,21.77
2023-03-13T01:09:15.334Z,25.57
2023-03-13T01:11:46.724Z,22.73
2023-03-13T01:14:17.989Z,22.92
2023-03-13T01:16:46.621Z,24.02
2023-03-13T01:19:17.128Z,23.70
2023-03-13T01:21:47.762Z,24.13
2023-03-13T01:24:16.939Z,26.48
2023-03-13T01:26:46.625Z,24.65
2023-03-13T01:29:17.086Z,22.27
2023-03-13T01:31:45.372Z,26.35
2023-03-13T01:34:13.857Z,27.73
2023-03-13T01:36:42.205Z,24.77
2023-03-13T01:39:10.501Z,25.73
2023-03-13T01:41:39.505Z,28.98
2023-03-13T01:44:23.753Z,28.42
2023-03-13T01:46:53.160Z,31.98
2023-03-13T01:49:33.370Z,24.23
2023-03-13T01:52:14.686Z,23.20
2023-03-13T01:54:54.531Z,24.33
2023-03-13T01:57:27.091Z,25.30
2023-03-13T02:00:00.670Z,27.08
2023-03-13T02:02:30.835Z,30.98
2023-03-13T02:05:02.941Z,27.38
2023-03-13T02:07:36.314Z,28.35
2023-03-13T02:10:06.150Z,28.55
2023-03-13T02:12:37.324Z,29.00
2023-03-13T02:15:11.684Z,26.67
2023-03-13T02:17:41.311Z,29.65
2023-03-13T02:20:13.011Z,29.88
2023-03-13T02:22:48.745Z,22.85
2023-03-13T02:25:33.771Z,29.13
2023-03-13T02:28:06.599Z,25.20
2023-03-13T02:30:38.902Z,28.15
2023-03-13T02:33:07.538Z,31.77
2023-03-13T02:35:38.055Z,24.67
2023-03-13T02:38:14.250Z,22.95
2023-03-13T02:40:46.626Z,21.90
2023-03-13T02:43:19.654Z,22.58
2023-03-13T02:46:06.363Z,27.00
2023-03-13T02:48:40.205Z,19.80
2023-03-13T02:51:17.649Z,23.40
2023-03-13T02:53:48.150Z,18.63
2023-03-13T02:56:21.481Z,19.38
2023-03-13T02:58:50.810Z,16.45
2023-03-13T03:01:23.107Z,17.55
2023-03-13T03:03:51.969Z,15.23
2023-03-13T03:06:20.598Z,14.98
2023-03-13T03:08:49.505Z,12.60
2023-03-13T03:11:19.373Z,17.40
2023-03-13T03:13:52.516Z,18.25
2023-03-13T03:16:21.079Z,16.50
2023-03-13T03:18:49.786Z,19.45
2023-03-13T03:21:18.243Z,15.77
2023-03-13T03:23:46.686Z,15.00
2023-03-13T03:26:14.996Z,14.30
2023-03-13T03:28:44.774Z,20.05
2023-03-13T03:31:16.860Z,18.38
2023-03-13T03:33:46.570Z,18.42
2023-03-13T03:36:20.710Z,12.65
2023-03-13T03:38:50.469Z,13.63
2023-03-13T03:41:22.229Z,15.80
2023-03-13T03:43:52.039Z,20.67
2023-03-13T03:46:24.722Z,16.48
2023-03-13T03:48:53.304Z,20.27
2023-03-13T03:51:22.731Z,18.27
2023-03-13T03:53:51.252Z,17.58
2023-03-13T03:56:19.590Z,16.77
2023-03-13T03:58:54.308Z,16.77
2023-03-13T04:01:28.516Z,16.52
2023-03-13T04:03:56.853Z,17.27
2023-03-13T04:06:25.211Z,16.27
2023-03-13T04:08:53.638Z,15.95
2023-03-13T04:11:24.698Z,19.63
2023-03-13T04:13:57.321Z,16.27
2023-03-13T04:16:26.423Z,16.58
2023-03-13T04:18:56.377Z,16.60
2023-03-13T04:21:27.274Z,15.15
2023-03-13T04:24:15.877Z,20.83
2023-03-13T04:26:45.971Z,15.45
2023-03-13T04:29:17.004Z,15.82
2023-03-13T04:31:53.578Z,13.20
2023-03-13T04:34:31.058Z,22.05
2023-03-13T04:37:20.222Z,21.48
2023-03-13T04:40:12.656Z,21.02
2023-03-13T04:42:41.354Z,19.83
2023-03-13T04:45:29.378Z,19.90
2023-03-13T04:48:16.407Z,19.65
2023-03-13T04:50:52.969Z,23.58
2023-03-13T04:53:29.555Z,20.02
2023-03-13T04:56:41.496Z,25.98
2023-03-13T04:59:25.381Z,21.63
2023-03-13T05:02:00.811Z,21.98
2023-03-13T05:04:52.454Z,22.80
2023-03-13T05:07:28.576Z,20.80
2023-03-13T05:10:07.032Z,22.02
2023-03-13T05:12:45.929Z,17.75
2023-03-13T05:15:27.389Z,21.92
2023-03-13T05:18:17.027Z,15.80
2023-03-13T05:20:59.832Z,21.52
2023-03-13T05:23:36.853Z,21.38
2023-03-13T05:26:18.454Z,23.00
2023-03-13T05:29:12.643Z,18.95
2023-03-13T05:31:57.120Z,20.15
2023-03-13T05:34:46.811Z,21.13
2023-03-13T05:37:33.794Z,21.58
2023-03-13T05:40:20.821Z,20.25
2023-03-13T05:43:09.271Z,18.33
2023-03-13T05:46:03.468Z,19.00
2023-03-13T05:49:01.000Z,23.88
2023-03-13T05:51:30.709Z,22.15
2023-03-13T05:54:25.245Z,22.90
2023-03-13T05:57:05.608Z,20.50
2023-03-13T05:59:40.345Z,20.08
2023-03-13T06:02:34.936Z,16.60
2023-03-13T06:05:06.144Z,19.63
2023-03-13T06:07:35.872Z,19.35
2023-03-13T06:10:06.088Z,20.80
2023-03-13T06:12:36.059Z,18.67
2023-03-13T06:15:07.234Z,16.80
2023-03-13T06:17:59.043Z,20.08
2023-03-13T06:20:27.473Z,18.73
2023-03-13T06:22:57.106Z,18.90
2023-03-13T06:25:25.521Z,20.23
2023-03-13T06:27:53.776Z,18.88
2023-03-13T06:30:22.222Z,19.48
2023-03-13T06:32:51.149Z,15.52
2023-03-13T06:35:19.460Z,23.75
2023-03-13T06:37:47.793Z,17.65
2023-03-13T06:40:17.696Z,20.30
2023-03-13T06:42:46.084Z,19.15
2023-03-13T06:45:14.382Z,27.33
2023-03-13T06:47:42.635Z,20.95
2023-03-13T06:50:12.464Z,25.08
2023-03-13T06:52:44.243Z,16.67
2023-03-13T06:55:13.713Z,19.77
2023-03-13T06:57:43.385Z,22.15
2023-03-13T07:00:13.338Z,17.98
2023-03-13T07:02:41.603Z,20.98
2023-03-13T07:05:10.824Z,23.33
2023-03-13T07:07:39.166Z,21.45
2023-03-13T07:10:10.521Z,19.95
2023-03-13T07:12:39.449Z,23.60
2023-03-13T07:15:10.311Z,21.88
2023-03-13T07:17:38.924Z,18.80
2023-03-13T07:20:10.594Z,17.00
2023-03-13T07:22:39.100Z,20.10
2023-03-13T07:25:09.552Z,14.13
2023-03-13T07:27:38.543Z,19.10
2023-03-13T07:30:10.088Z,19.33
2023-03-13T07:32:38.463Z,20.35
2023-03-13T07:35:07.846Z,19.38
2023-03-13T07:37:36.154Z,17.90
2023-03-13T07:40:05.705Z,17.77
2023-03-13T07:42:34.029Z,19.08
2023-03-13T07:45:02.413Z,15.98
2023-03-13T07:47:32.137Z,16.45
2023-03-13T07:50:00.425Z,15.35
2023-03-13T07:52:28.923Z,13.38
2023-03-13T07:54:57.280Z,18.83
2023-03-13T07:57:25.571Z,12.23
2023-03-13T07:59:53.891Z,9.52
2023-03-13T08:02:22.329Z,10.30
2023-03-13T08:04:55.590Z,13.07
2023-03-13T08:07:25.218Z,10.75
2023-03-13T08:09:53.443Z,15.65
2023-03-13T08:12:21.713Z,16.15
2023-03-13T08:14:49.997Z,12.65
2023-03-13T08:17:18.397Z,12.38
2023-03-13T08:19:46.673Z,12.25
2023-03-13T08:22:16.279Z,13.68
2023-03-13T08:24:44.637Z,12.27
2023-03-13T08:27:12.935Z,15.35
2023-03-13T08:29:41.250Z,15.52
2023-03-13T08:32:09.910Z,16.10
2023-03-13T08:34:39.789Z,13.35
2023-03-13T08:37:08.037Z,12.50
2023-03-13T08:39:37.948Z,16.27
2023-03-13T08:42:06.422Z,17.23
2023-03-13T08:44:34.708Z,14.27
2023-03-13T08:47:03.320Z,15.13
2023-03-13T08:49:31.631Z,12.85
2023-03-13T08:52:00.694Z,18.77
2023-03-13T08:54:29.018Z,19.80
2023-03-13T08:56:59.866Z,14.85
2023-03-13T08:59:29.704Z,12.73
2023-03-13T09:01:58.231Z,16.30
2023-03-13T09:04:26.572Z,17.20
2023-03-13T09:06:55.305Z,16.50
2023-03-13T09:09:24.649Z,13.68
2023-03-13T09:11:54.144Z,18.83
2023-03-13T09:14:23.834Z,15.85
2023-03-13T09:16:52.182Z,15.70
2023-03-13T09:19:20.460Z,18.00
2023-03-13T09:21:49.356Z,17.95
2023-03-13T09:24:17.825Z,15.48
2023-03-13T09:27:00.156Z,18.70
2023-03-13T09:29:30.915Z,12.55
2023-03-13T09:31:59.857Z,14.23
2023-03-13T09:34:28.233Z,9.77
2023-03-13T09:36:56.508Z,12.48
2023-03-13T09:39:24.813Z,9.35
2023-03-13T09:42:01.506Z,10.52
2023-03-13T09:44:39.113Z,12.50
2023-03-13T09:47:12.879Z,10.43
2023-03-13T09:49:43.901Z,9.45
2023-03-13T09:52:18.547Z,9.30
2023-03-13T09:54:51.155Z,10.85
2023-03-13T09:57:26.511Z,10.68
2023-03-13T10:00:00.477Z,11.93
2023-03-13T10:02:34.086Z,9.55
2023-03-13T10:05:15.346Z,9.93
2023-03-13T10:07:43.855Z,11.48
2023-03-13T10:10:18.013Z,11.88
2023-03-13T10:12:49.227Z,11.02
2023-03-13T10:15:32.098Z,11.55
2023-03-13T10:18:03.262Z,13.00
2023-03-13T10:20:36.592Z,14.05
2023-03-13T10:23:09.327Z,14.68
2023-03-13T10:25:39.453Z,20.33
2023-03-13T10:28:12.410Z,11.43
2023-03-13T10:30:48.559Z,20.15
2023-03-13T10:33:28.622Z,19.02
2023-03-13T10:36:08.453Z,15.88
2023-03-13T10:38:49.690Z,16.38
2023-03-13T10:41:31.053Z,21.77
2023-03-13T10:44:02.948Z,19.45
2023-03-13T10:46:35.826Z,17.65
2023-03-13T10:49:06.343Z,17.60
2023-03-13T10:51:39.526Z,13.55
2023-03-13T10:54:23.640Z,14.88
2023-03-13T10:56:54.254Z,17.17
2023-03-13T11:02:01.432Z,18.80
2023-03-13T11:04:34.804Z,22.88
2023-03-13T11:07:06.274Z,26.27
2023-03-13T11:09:34.629Z,19.23
2023-03-13T11:12:10.831Z,25.15
2023-03-13T11:14:39.792Z,19.40
2023-03-13T11:17:26.981Z,23.50
2023-03-13T11:20:06.999Z,26.27
2023-03-13T11:22:47.769Z,20.85
2023-03-13T11:28:11.013Z,18.63
2023-03-13T11:30:54.752Z,26.75
2023-03-13T11:33:37.486Z,23.38
2023-03-13T11:36:16.463Z,26.25
2023-03-13T11:38:50.210Z,24.13
2023-03-13T11:41:40.179Z,29.02
2023-03-13T11:44:29.352Z,29.05
2023-03-13T11:47:36.901Z,26.35
2023-03-13T11:50:44.879Z,22.95
2023-03-13T11:53:41.936Z,25.30
2023-03-13T11:56:17.090Z,27.52
2023-03-13T11:59:06.882Z,32.28
2023-03-13T12:01:41.025Z,37.93
2023-03-13T12:04:19.484Z,26.95
2023-03-13T12:06:54.029Z,31.55
2023-03-13T12:09:29.043Z,28.98
2023-03-13T12:12:04.444Z,28.20
2023-03-13T12:14:37.515Z,33.45
2023-03-13T12:17:11.253Z,33.42
2023-03-13T12:19:49.202Z,34.83
2023-03-13T12:22:24.417Z,30.67
2023-03-13T12:25:01.193Z,39.95
2023-03-13T12:27:36.355Z,36.47
2023-03-13T12:30:16.549Z,34.53
2023-03-13T12:32:52.360Z,31.73
2023-03-13T12:35:28.810Z,28.92
2023-03-13T12:38:08.075Z,35.83
2023-03-13T12:40:42.947Z,29.17
2023-03-13T12:43:16.266Z,25.10
2023-03-13T12:46:06.647Z,31.30
2023-03-13T12:48:55.021Z,27.27
2023-03-13T12:51:43.860Z,35.00
2023-03-13T12:54:34.401Z,38.35
2023-03-13T12:57:15.646Z,31.67
2023-03-13T12:59:47.771Z,39.00
2023-03-13T13:02:20.758Z,25.02
2023-03-13T13:04:51.851Z,29.92
2023-03-13T13:07:26.801Z,37.15
2023-03-13T13:10:19.470Z,30.38
2023-03-13T13:13:18.923Z,32.17
2023-03-13T13:15:49.110Z,34.72
2023-03-13T13:18:28.556Z,35.30
2023-03-13T13:21:26.381Z,33.80
2023-03-13T13:23:56.594Z,28.83
2023-03-13T13:26:53.036Z,36.20
2023-03-13T13:29:58.050Z,35.65
2023-03-13T13:32:43.052Z,31.73
2023-03-13T13:35:40.803Z,34.08
2023-03-13T13:38:36.817Z,33.95
2023-03-13T13:41:26.703Z,38.60
2023-03-13T13:44:22.995Z,46.50
2023-03-13T13:46:51.664Z,37.53
2023-03-13T13:49:21.233Z,30.77
2023-03-13T13:52:33.748Z,37.45
2023-03-13T13:55:03.644Z,37.30
2023-03-13T13:57:35.855Z,42.05
2023-03-13T14:00:22.307Z,43.05
2023-03-13T14:02:53.917Z,35.65
2023-03-13T14:05:26.801Z,39.03
2023-03-13T14:08:02.027Z,35.08
2023-03-13T14:10:40.817Z,31.55
2023-03-13T14:13:19.095Z,32.25
2023-03-13T14:15:52.815Z,35.03
2023-03-13T14:18:25.447Z,40.20
2023-03-13T14:20:59.412Z,40.25
2023-03-13T14:23:42.106Z,37.38
2023-03-13T14:26:17.882Z,26.25
2023-03-13T14:28:49.294Z,34.88
2023-03-13T14:31:31.525Z,34.00
2023-03-13T14:34:03.428Z,33.35
2023-03-13T14:36:32.273Z,36.38
2023-03-13T14:39:01.400Z,32.55
2023-03-13T14:41:37.492Z,39.28
2023-03-13T14:44:11.604Z,40.50
2023-03-13T14:46:43.632Z,35.08
2023-03-13T14:49:20.641Z,28.30
2023-03-13T14:52:00.252Z,31.58
2023-03-13T14:54:32.594Z,36.38
2023-03-13T14:57:07.714Z,35.25
2023-03-13T14:59:36.033Z,39.10
2023-03-13T15:02:19.982Z,39.00
2023-03-13T15:04:59.628Z,34.00
2023-03-13T15:07:37.327Z,33.67
2023-03-13T15:10:21.542Z,40.28
2023-03-13T15:12:50.523Z,36.28
2023-03-13T15:15:19.497Z,36.17
2023-03-13T15:17:49.226Z,40.33
2023-03-13T15:20:18.986Z,39.13
2023-03-13T15:22:47.737Z,39.80
2023-03-13T15:25:20.690Z,40.67
2023-03-13T15:27:49.809Z,38.83
2023-03-13T15:30:19.401Z,31.85
2023-03-13T15:32:49.181Z,34.85
2023-03-13T15:35:28.346Z,32.92
2023-03-13T15:37:58.614Z,38.58
2023-03-13T15:40:28.358Z,37.85
2023-03-13T15:42:57.190Z,39.67
2023-03-13T15:45:25.507Z,38.42
2023-03-13T15:47:55.460Z,35.15
2023-03-13T15:50:29.631Z,31.42
2023-03-13T15:52:58.695Z,30.95
2023-03-13T15:55:27.770Z,37.35
2023-03-13T15:57:56.094Z,28.95
2023-03-13T16:00:26.946Z,33.00
2023-03-13T16:02:56.688Z,30.02
2023-03-13T16:05:24.980Z,36.15
2023-03-13T16:07:53.407Z,30.85
2023-03-13T16:10:25.785Z,33.47
2023-03-13T16:12:54.681Z,35.95
2023-03-13T16:15:23.571Z,33.40
2023-03-13T16:17:52.084Z,36.22
2023-03-13T16:20:26.398Z,34.03
2023-03-13T16:22:54.813Z,36.03
2023-03-13T16:25:24.230Z,32.22
2023-03-13T16:27:53.542Z,33.85
2023-03-13T16:30:27.268Z,39.50
2023-03-13T16:32:55.728Z,45.67
2023-03-13T16:35:28.354Z,43.47
2023-03-13T16:37:58.791Z,37.78
2023-03-13T16:40:30.309Z,39.13
2023-03-13T16:42:58.834Z,41.83
2023-03-13T16:45:27.521Z,39.95
2023-03-13T16:47:55.855Z,40.95
2023-03-13T16:50:29.748Z,39.88
2023-03-13T16:52:58.371Z,40.45
2023-03-13T16:55:28.671Z,36.97
2023-03-13T16:57:57.733Z,45.85
2023-03-13T17:00:29.877Z,41.28
2023-03-13T17:02:58.678Z,42.70
2023-03-13T17:05:30.818Z,44.92
2023-03-13T17:07:59.165Z,36.38
2023-03-13T17:10:30.469Z,48.17
2023-03-13T17:12:59.187Z,40.60
2023-03-13T17:15:28.691Z,55.83
2023-03-13T17:17:57.432Z,41.50
2023-03-13T17:20:31.152Z,39.67
2023-03-13T17:23:01.119Z,43.38
2023-03-13T17:25:29.516Z,43.30
2023-03-13T17:27:57.781Z,47.15
2023-03-13T17:30:28.906Z,46.17
2023-03-13T17:32:59.001Z,39.35
2023-03-13T17:35:28.795Z,40.17
2023-03-13T17:37:57.083Z,42.45
2023-03-13T17:40:30.037Z,41.88
2023-03-13T17:42:58.624Z,41.78
2023-03-13T17:45:27.036Z,37.85
2023-03-13T17:47:55.602Z,38.40
2023-03-13T17:50:28.294Z,41.83
2023-03-13T17:52:57.163Z,37.58
2023-03-13T17:55:25.511Z,43.70
2023-03-13T17:57:53.926Z,49.28
2023-03-13T18:00:25.835Z,35.35
2023-03-13T18:02:54.279Z,40.55
2023-03-13T18:05:22.807Z,44.53
2023-03-13T18:07:53.232Z,33.38
2023-03-13T18:10:24.492Z,46.08
2023-03-13T18:12:53.269Z,41.40
2023-03-13T18:15:22.937Z,42.67
2023-03-13T18:17:51.758Z,38.47
2023-03-13T18:20:22.997Z,45.70
2023-03-13T18:22:52.676Z,42.55
2023-03-13T18:25:20.956Z,42.38
2023-03-13T18:27:49.212Z,43.60
2023-03-13T18:30:20.521Z,45.83
2023-03-13T18:32:49.426Z,42.13
2023-03-13T18:35:19.297Z,43.22
2023-03-13T18:37:49.002Z,45.38
2023-03-13T18:40:23.395Z,41.15
2023-03-13T18:42:51.920Z,41.42
2023-03-13T18:45:23.750Z,45.03
2023-03-13T18:47:52.318Z,42.58
2023-03-13T18:50:26.382Z,43.05
2023-03-13T18:52:55.886Z,42.33
2023-03-13T18:55:27.253Z,39.03
2023-03-13T18:57:56.191Z,42.67
2023-03-13T19:00:27.364Z,33.72
2023-03-13T19:02:56.090Z,40.00
2023-03-13T19:05:24.722Z,39.92
2023-03-13T19:07:54.060Z,36.75
2023-03-13T19:10:26.837Z,41.10
2023-03-13T19:12:57.117Z,37.35
2023-03-13T19:15:29.156Z,41.85
2023-03-13T19:18:01.810Z,37.05
2023-03-13T19:20:31.521Z,45.83
2023-03-13T19:23:00.852Z,38.28
2023-03-13T19:25:30.726Z,35.88
2023-03-13T19:27:59.146Z,44.70
2023-03-13T19:30:28.499Z,34.45
2023-03-13T19:32:56.931Z,33.00
2023-03-13T19:35:25.441Z,49.72
2023-03-13T19:37:53.788Z,40.05
2023-03-13T19:40:26.064Z,36.67
2023-03-13T19:42:55.864Z,36.10
2023-03-13T19:45:24.200Z,38.17
2023-03-13T19:47:52.447Z,37.63
2023-03-13T19:50:23.711Z,38.40
2023-03-13T19:52:52.078Z,39.22
2023-03-13T19:55:20.633Z,38.15
2023-03-13T19:57:48.926Z,38.97
2023-03-13T20:00:23.344Z,39.85
2023-03-13T20:02:54.968Z,33.60
2023-03-13T20:05:23.765Z,34.25
2023-03-13T20:07:53.958Z,41.13
2023-03-13T20:10:22.958Z,34.78
2023-03-13T20:12:53.550Z,37.72
2023-03-13T20:15:23.306Z,35.40
2023-03-13T20:17:51.697Z,30.13
2023-03-13T20:20:20.675Z,39.47
2023-03-13T20:22:49.015Z,39.92
2023-03-13T20:25:17.543Z,34.42
2023-03-13T20:27:45.915Z,30.92
2023-03-13T20:30:14.554Z,43.72
2023-03-13T20:32:58.576Z,34.88
2023-03-13T20:35:29.399Z,35.67
2023-03-13T20:37:59.782Z,28.00
2023-03-13T20:40:28.384Z,34.60
2023-03-13T20:42:58.322Z,32.60
2023-03-13T20:45:28.022Z,38.50
2023-03-13T20:47:58.708Z,37.38
2023-03-13T20:52:56.195Z,43.97
2023-03-13T20:55:24.475Z,34.03
2023-03-13T20:57:52.764Z,33.08
2023-03-13T21:00:23.365Z,33.22
2023-03-13T21:02:53.781Z,25.83
2023-03-13T21:05:23.560Z,38.00
2023-03-13T21:07:51.878Z,30.63
2023-03-13T21:10:20.414Z,40.72
2023-03-13T21:12:48.725Z,37.03
2023-03-13T21:15:17.218Z,37.20
2023-03-13T21:17:45.571Z,35.30
2023-03-13T21:20:15.436Z,37.10
2023-03-13T21:22:45.129Z,36.72
2023-03-13T21:25:13.979Z,32.78
2023-03-13T21:27:43.748Z,38.90
2023-03-13T21:30:15.510Z,38.80
2023-03-13T21:32:43.986Z,40.92
2023-03-13T21:35:13.357Z,37.58
2023-03-13T21:37:42.797Z,38.80
2023-03-13T21:40:14.130Z,37.38
2023-03-13T21:42:42.452Z,36.60
2023-03-13T21:45:12.370Z,35.67
2023-03-13T21:47:40.756Z,37.25
2023-03-13T21:50:11.325Z,29.77
2023-03-13T21:52:42.130Z,29.38
2023-03-13T21:55:14.029Z,32.92
2023-03-13T21:57:42.453Z,35.38
2023-03-13T22:00:14.340Z,36.45
2023-03-13T22:02:43.310Z,29.98
2023-03-13T22:05:13.024Z,36.17
2023-03-13T22:07:41.430Z,31.30
2023-03-13T22:10:11.375Z,31.02
2023-03-13T22:12:41.080Z,31.20
2023-03-13T22:15:11.658Z,25.30
2023-03-13T22:17:40.009Z,32.22
2023-03-13T22:20:10.576Z,32.42
2023-03-13T22:22:38.874Z,29.60
2023-03-13T22:25:08.172Z,27.05
2023-03-13T22:27:36.739Z,27.08
2023-03-13T22:30:08.538Z,28.20
2023-03-13T22:32:36.894Z,33.58
2023-03-13T22:35:06.670Z,28.77
2023-03-13T22:37:35.099Z,30.87
2023-03-13T22:40:03.512Z,23.92
2023-03-13T22:42:31.860Z,26.88
2023-03-13T22:45:00.224Z,29.15
2023-03-13T22:47:29.951Z,24.38
2023-03-13T22:49:58.271Z,26.80
2023-03-13T22:52:30.647Z,26.85
2023-03-13T22:54:59.974Z,28.42
2023-03-13T22:57:29.390Z,24.17
2023-03-13T22:59:59.088Z,18.35
2023-03-13T23:02:29.410Z,24.77
2023-03-13T23:05:00.532Z,20.52
2023-03-13T23:07:31.054Z,20.38
2023-03-13T23:09:59.989Z,22.17
2023-03-13T23:12:30.766Z,18.88
2023-03-13T23:15:00.495Z,24.08
2023-03-13T23:17:32.210Z,20.33
2023-03-13T23:20:01.458Z,20.88
2023-03-13T23:22:32.866Z,20.38
2023-03-13T23:25:01.373Z,18.90
2023-03-13T23:27:29.728Z,18.70
2023-03-13T23:29:58.033Z,14.38
2023-03-13T23:32:26.481Z,18.02
2023-03-13T23:34:58.493Z,24.83
2023-03-13T23:37:26.741Z,19.92
2023-03-13T23:39:55.154Z,18.33
2023-03-13T23:42:23.432Z,19.58
2023-03-13T23:44:51.681Z,20.65
2023-03-13T23:47:20.171Z,22.40
2023-03-13T23:49:48.478Z,20.25
2023-03-13T23:52:18.127Z,23.00
2023-03-13T23:54:46.458Z,19.85
2023-03-13T23:57:14.736Z,22.90
2023-03-13T23:59:43.215Z,24.50
